createdAt,value
2022-10-23T00:01:45.651Z,10.62
2022-10-23T00:04:21.366Z,10.65
2022-10-23T00:06:55.807Z,10.65
2022-10-23T00:09:30.821Z,10.67
2022-10-23T00:12:05.097Z,10.64
2022-10-23T00:14:37.857Z,10.60
2022-10-23T00:17:12.854Z,10.57
2022-10-23T00:19:46.624Z,10.56
2022-10-23T00:22:19.348Z,10.57
2022-10-23T00:24:54.144Z,10.58
2022-10-23T00:27:31.938Z,10.59
2022-10-23T00:30:17.144Z,10.58
2022-10-23T00:32:50.949Z,10.54
2022-10-23T00:35:25.169Z,10.50
2022-10-23T00:37:57.959Z,10.49
2022-10-23T00:40:30.571Z,10.49
2022-10-23T00:43:04.422Z,10.49
2022-10-23T00:45:37.573Z,10.46
2022-10-23T00:48:12.301Z,10.43
2022-10-23T00:50:45.650Z,10.41
2022-10-23T00:53:20.462Z,10.40
2022-10-23T00:55:59.415Z,10.36
2022-10-23T00:58:35.157Z,10.34
2022-10-23T01:01:23.093Z,10.31
2022-10-23T01:03:57.771Z,10.29
2022-10-23T01:06:53.287Z,10.23
2022-10-23T01:09:50.206Z,10.18
2022-10-23T01:12:41.803Z,10.16
2022-10-23T01:15:24.777Z,10.15
2022-10-23T01:18:20.521Z,10.13
2022-10-23T01:21:08.698Z,10.09
2022-10-23T01:23:52.706Z,10.08
2022-10-23T01:26:40.709Z,10.06
2022-10-23T01:29:59.661Z,10.02
2022-10-23T01:33:01.321Z,10.00
2022-10-23T01:35:39.226Z,9.96
2022-10-23T01:38:27.413Z,9.94
2022-10-23T01:41:12.124Z,9.92
2022-10-23T01:43:51.509Z,9.91
2022-10-23T01:46:26.191Z,9.90
2022-10-23T01:48:59.831Z,9.89
2022-10-23T01:51:33.452Z,9.88
2022-10-23T01:54:10.230Z,9.87
2022-10-23T01:56:47.257Z,9.87
2022-10-23T01:59:28.023Z,9.85
2022-10-23T02:02:02.067Z,9.81
2022-10-23T02:04:45.423Z,9.79
2022-10-23T02:07:31.323Z,9.80
2022-10-23T02:10:07.602Z,9.79
2022-10-23T02:12:57.953Z,9.79
2022-10-23T02:15:48.496Z,9.76
2022-10-23T02:18:41.208Z,9.73
2022-10-23T02:21:55.448Z,9.71
2022-10-23T02:24:48.177Z,9.71
2022-10-23T02:27:29.967Z,9.74
2022-10-23T02:30:15.469Z,9.75
2022-10-23T02:32:54.628Z,9.74
2022-10-23T02:35:27.643Z,9.73
2022-10-23T02:38:02.905Z,9.74
2022-10-23T02:40:42.093Z,9.74
2022-10-23T02:43:22.498Z,9.73
2022-10-23T02:46:03.631Z,9.74
2022-10-23T02:48:56.239Z,9.76
2022-10-23T02:51:42.449Z,9.77
2022-10-23T02:54:40.989Z,9.77
2022-10-23T02:57:38.066Z,9.79
2022-10-23T03:00:19.717Z,9.82
2022-10-23T03:03:01.396Z,9.85
2022-10-23T03:05:41.296Z,9.83
2022-10-23T03:08:16.308Z,9.82
2022-10-23T03:10:49.520Z,9.81
2022-10-23T03:13:23.629Z,9.79
2022-10-23T03:16:19.798Z,9.81
2022-10-23T03:18:54.117Z,9.84
2022-10-23T03:21:29.078Z,9.88
2022-10-23T03:24:05.283Z,9.91
2022-10-23T03:26:39.554Z,9.95
2022-10-23T03:29:13.023Z,9.97
2022-10-23T03:31:48.662Z,9.98
2022-10-23T03:34:21.937Z,9.98
2022-10-23T03:36:56.981Z,9.98
2022-10-23T03:39:29.762Z,9.99
2022-10-23T03:42:04.119Z,9.99
2022-10-23T03:44:39.724Z,9.98
2022-10-23T03:47:13.679Z,9.99
2022-10-23T03:49:46.727Z,9.99
2022-10-23T03:52:19.581Z,9.97
2022-10-23T03:54:57.262Z,9.97
2022-10-23T03:57:30.056Z,9.98
2022-10-23T04:00:03.716Z,10.01
2022-10-23T04:02:39.242Z,10.06
2022-10-23T04:05:15.747Z,10.09
2022-10-23T04:07:51.097Z,10.13
2022-10-23T04:10:26.139Z,10.14
2022-10-23T04:13:00.659Z,10.15
2022-10-23T04:15:40.334Z,10.16
2022-10-23T04:18:16.577Z,10.19
2022-10-23T04:20:50.925Z,10.21
2022-10-23T04:23:25.192Z,10.23
2022-10-23T04:25:59.879Z,10.25
2022-10-23T04:28:33.170Z,10.26
2022-10-23T04:31:07.757Z,10.28
2022-10-23T04:33:40.668Z,10.30
2022-10-23T04:36:13.683Z,10.31
2022-10-23T04:38:46.375Z,10.32
2022-10-23T04:41:20.461Z,10.34
2022-10-23T04:43:53.801Z,10.35
2022-10-23T04:46:26.569Z,10.37
2022-10-23T04:49:00.882Z,10.39
2022-10-23T04:51:54.346Z,10.39
2022-10-23T04:54:46.941Z,10.39
2022-10-23T04:57:31.083Z,10.41
2022-10-23T05:00:09.094Z,10.41
2022-10-23T05:03:01.227Z,10.41
2022-10-23T05:05:36.715Z,10.42
2022-10-23T05:08:17.905Z,10.43
2022-10-23T05:10:58.054Z,10.43
2022-10-23T05:13:32.031Z,10.42
2022-10-23T05:16:05.730Z,10.40
2022-10-23T05:18:44.100Z,10.40
2022-10-23T05:21:26.056Z,10.36
2022-10-23T05:24:03.323Z,10.32
2022-10-23T05:26:36.162Z,10.30
2022-10-23T05:29:10.738Z,10.29
2022-10-23T05:31:43.463Z,10.32
2022-10-23T05:34:21.698Z,10.33
2022-10-23T05:36:57.452Z,10.32
2022-10-23T05:39:32.056Z,10.33
2022-10-23T05:42:08.229Z,10.35
2022-10-23T05:44:42.470Z,10.39
2022-10-23T05:47:19.462Z,10.41
2022-10-23T05:49:59.880Z,10.41
2022-10-23T05:52:49.204Z,10.43
2022-10-23T05:55:25.520Z,10.45
2022-10-23T05:58:19.294Z,10.47
2022-10-23T06:00:56.759Z,10.49
2022-10-23T06:03:35.831Z,10.52
2022-10-23T06:06:10.169Z,10.53
2022-10-23T06:08:49.083Z,10.56
2022-10-23T06:11:23.606Z,10.56
2022-10-23T06:14:01.640Z,10.58
2022-10-23T06:16:35.161Z,10.59
2022-10-23T06:19:13.492Z,10.61
2022-10-23T06:21:46.808Z,10.61
2022-10-23T06:24:20.370Z,10.64
2022-10-23T06:26:58.464Z,10.68
2022-10-23T06:29:45.652Z,10.72
2022-10-23T06:32:22.171Z,10.74
2022-10-23T06:34:56.515Z,10.77
2022-10-23T06:37:30.876Z,10.79
2022-10-23T06:40:11.774Z,10.80
2022-10-23T06:43:02.707Z,10.82
2022-10-23T06:45:40.095Z,10.82
2022-10-23T06:48:19.019Z,10.81
2022-10-23T06:50:57.644Z,10.83
2022-10-23T06:53:34.187Z,10.83
2022-10-23T06:56:10.374Z,10.87
2022-10-23T06:58:44.974Z,10.87
2022-10-23T07:01:20.394Z,10.85
2022-10-23T07:03:54.794Z,10.83
2022-10-23T07:06:29.580Z,10.80
2022-10-23T07:09:03.851Z,10.79
2022-10-23T07:11:50.136Z,10.81
2022-10-23T07:14:27.196Z,10.81
2022-10-23T07:17:00.587Z,10.84
2022-10-23T07:19:34.146Z,10.86
2022-10-23T07:22:11.957Z,10.89
2022-10-23T07:24:48.969Z,10.92
2022-10-23T07:27:25.698Z,10.97
2022-10-23T07:30:04.006Z,10.98
2022-10-23T07:32:40.479Z,11.02
2022-10-23T07:35:33.100Z,11.08
2022-10-23T07:38:10.295Z,11.10
2022-10-23T07:40:48.418Z,11.15
2022-10-23T07:43:22.416Z,11.20
2022-10-23T07:45:56.334Z,11.22
2022-10-23T07:48:34.092Z,11.22
2022-10-23T07:51:10.951Z,11.24
2022-10-23T07:53:55.014Z,11.28
2022-10-23T07:56:32.749Z,11.30
2022-10-23T07:59:27.445Z,11.32
2022-10-23T08:02:02.011Z,11.38
2022-10-23T08:04:38.177Z,11.44
2022-10-23T08:07:23.594Z,11.46
2022-10-23T08:09:57.251Z,11.47
2022-10-23T08:12:30.647Z,11.50
2022-10-23T08:15:05.841Z,11.52
2022-10-23T08:17:42.077Z,11.57
2022-10-23T08:20:21.481Z,11.62
2022-10-23T08:23:01.081Z,11.70
2022-10-23T08:25:35.803Z,11.75
2022-10-23T08:28:10.576Z,11.82
2022-10-23T08:30:45.394Z,11.87
2022-10-23T08:33:22.948Z,11.92
2022-10-23T08:36:00.655Z,11.94
2022-10-23T08:38:37.877Z,12.03
2022-10-23T08:41:16.186Z,12.10
2022-10-23T08:44:16.583Z,12.14
2022-10-23T08:46:53.483Z,12.20
2022-10-23T08:49:53.628Z,12.21
2022-10-23T08:52:38.745Z,12.24
2022-10-23T08:55:17.961Z,12.26
2022-10-23T09:01:00.639Z,12.31
2022-10-23T09:03:35.821Z,12.39
2022-10-23T09:07:01.890Z,12.54
2022-10-23T09:09:53.968Z,12.60
2022-10-23T09:12:28.681Z,12.71
2022-10-23T09:15:28.255Z,12.74
2022-10-23T09:18:11.005Z,12.70
2022-10-23T09:20:48.362Z,12.68
2022-10-23T09:23:23.625Z,12.67
2022-10-23T09:25:57.805Z,12.65
2022-10-23T09:28:33.251Z,12.67
2022-10-23T09:31:13.410Z,12.70
2022-10-23T09:34:01.019Z,12.72
2022-10-23T09:36:34.979Z,12.71
2022-10-23T09:39:12.444Z,12.68
2022-10-23T09:41:46.263Z,12.68
2022-10-23T09:44:25.461Z,12.66
2022-10-23T09:47:12.257Z,12.67
2022-10-23T09:49:51.688Z,12.67
2022-10-23T09:52:36.244Z,12.74
2022-10-23T09:55:24.288Z,12.78
2022-10-23T09:57:58.954Z,12.77
2022-10-23T10:00:31.840Z,12.78
2022-10-23T10:03:07.645Z,12.83
2022-10-23T10:06:20.197Z,12.85
2022-10-23T10:08:57.984Z,12.92
2022-10-23T10:11:51.879Z,12.98
2022-10-23T10:14:55.327Z,13.05
2022-10-23T10:17:47.783Z,13.09
2022-10-23T10:20:42.910Z,13.11
2022-10-23T10:23:52.000Z,13.10
2022-10-23T10:26:38.451Z,13.11
2022-10-23T10:29:39.805Z,13.09
2022-10-23T10:32:42.976Z,13.07
2022-10-23T10:35:32.378Z,13.07
2022-10-23T10:38:43.663Z,13.05
2022-10-23T10:41:36.237Z,13.07
2022-10-23T10:44:22.586Z,13.05
2022-10-23T10:47:03.027Z,13.06
2022-10-23T10:49:45.761Z,13.07
2022-10-23T10:53:07.335Z,13.07
2022-10-23T10:55:44.624Z,13.03
2022-10-23T10:58:41.561Z,13.00
2022-10-23T11:01:35.359Z,13.01
2022-10-23T11:04:40.518Z,13.05
2022-10-23T11:07:19.055Z,13.04
2022-10-23T11:09:55.575Z,13.05
2022-10-23T11:12:29.944Z,13.04
2022-10-23T11:15:04.253Z,13.03
2022-10-23T11:17:45.674Z,13.06
2022-10-23T11:20:53.826Z,13.10
2022-10-23T11:24:00.259Z,13.14
2022-10-23T11:27:05.197Z,13.24
2022-10-23T11:30:12.044Z,13.36
2022-10-23T11:33:31.616Z,13.42
2022-10-23T11:36:24.125Z,13.48
2022-10-23T11:39:04.107Z,13.54
2022-10-23T11:41:38.812Z,13.57
2022-10-23T11:44:42.871Z,13.59
2022-10-23T11:47:40.729Z,13.58
2022-10-23T11:50:20.497Z,13.60
2022-10-23T11:53:13.885Z,13.63
2022-10-23T11:56:08.792Z,13.68
2022-10-23T11:58:55.574Z,13.69
2022-10-23T12:01:46.963Z,13.72
2022-10-23T12:04:27.203Z,13.79
2022-10-23T12:07:04.294Z,13.86
2022-10-23T12:09:45.072Z,13.87
2022-10-23T12:12:35.368Z,13.84
2022-10-23T12:15:15.519Z,13.79
2022-10-23T12:17:51.247Z,13.74
2022-10-23T12:20:42.465Z,13.75
2022-10-23T12:23:50.411Z,13.75
2022-10-23T14:35:05.027Z,12.37
2022-10-23T14:37:40.885Z,12.32
2022-10-23T14:40:17.861Z,12.30
2022-10-23T14:42:55.465Z,12.28
2022-10-23T14:45:31.092Z,12.27
2022-10-23T14:48:09.489Z,12.24
2022-10-23T14:50:50.375Z,12.20
2022-10-23T14:53:27.934Z,12.19
2022-10-23T14:56:09.828Z,12.15
2022-10-23T14:58:44.057Z,12.15
2022-10-23T15:01:19.564Z,12.16
2022-10-23T15:03:56.742Z,12.16
2022-10-23T15:06:31.934Z,12.15
2022-10-23T15:09:06.340Z,12.15
2022-10-23T15:11:41.275Z,12.16
2022-10-23T15:14:20.709Z,12.16
2022-10-23T15:16:54.420Z,12.16
2022-10-23T15:19:31.632Z,12.15
2022-10-23T15:22:07.052Z,12.15
2022-10-23T15:24:44.876Z,12.15
2022-10-23T15:27:18.798Z,12.16
2022-10-23T15:29:55.268Z,12.15
2022-10-23T15:32:28.819Z,12.16
2022-10-23T15:35:02.703Z,12.16
2022-10-23T15:37:36.698Z,12.18
2022-10-23T15:40:12.096Z,12.20
2022-10-23T15:42:45.022Z,12.22
2022-10-23T15:45:18.703Z,12.25
2022-10-23T15:47:51.714Z,12.27
2022-10-23T15:50:25.787Z,12.26
2022-10-23T15:52:58.756Z,12.27
2022-10-23T15:55:33.280Z,12.29
2022-10-23T15:58:06.284Z,12.32
2022-10-23T16:00:42.438Z,12.34
2022-10-23T16:03:17.101Z,12.34
2022-10-23T16:05:50.793Z,12.35
2022-10-23T16:08:26.320Z,12.36
2022-10-23T16:11:01.309Z,12.37
2022-10-23T16:13:34.738Z,12.39
2022-10-23T16:16:10.051Z,12.39
2022-10-23T16:18:44.767Z,12.40
2022-10-23T16:21:26.903Z,12.42
2022-10-23T16:24:01.965Z,12.42
2022-10-23T16:26:37.355Z,12.44
2022-10-23T16:29:11.209Z,12.44
2022-10-23T16:31:50.295Z,12.45
2022-10-23T16:34:27.386Z,12.41
2022-10-23T16:37:00.957Z,12.36
2022-10-23T16:39:46.779Z,12.34
2022-10-23T16:42:38.399Z,12.33
2022-10-23T16:45:14.701Z,12.35
2022-10-23T16:47:49.561Z,12.33
2022-10-23T16:50:27.267Z,12.29
2022-10-23T16:53:06.897Z,12.26
2022-10-23T16:55:43.901Z,12.21
2022-10-23T16:58:18.857Z,12.17
2022-10-23T17:01:04.452Z,12.16
2022-10-23T17:04:02.594Z,12.16
2022-10-23T17:06:41.842Z,12.16
2022-10-23T17:09:18.261Z,12.17
2022-10-23T17:11:55.262Z,12.19
2022-10-23T17:14:34.709Z,12.17
2022-10-23T17:17:21.187Z,12.20
2022-10-23T17:20:07.581Z,12.21
2022-10-23T17:22:42.088Z,12.21
2022-10-23T17:25:18.053Z,12.20
2022-10-23T17:27:58.575Z,12.19
2022-10-23T17:30:37.025Z,12.19
2022-10-23T17:33:13.840Z,12.21
2022-10-23T17:35:51.214Z,12.21
2022-10-23T17:38:27.317Z,12.22
2022-10-23T17:41:07.969Z,12.22
2022-10-23T17:43:46.878Z,12.24
2022-10-23T17:46:21.809Z,12.25
2022-10-23T17:49:00.202Z,12.27
2022-10-23T17:51:42.344Z,12.26
2022-10-23T17:54:19.978Z,12.28
2022-10-23T17:56:55.000Z,12.28
2022-10-23T17:59:32.727Z,12.29
2022-10-23T18:02:09.591Z,12.31
2022-10-23T18:04:56.830Z,12.31
2022-10-23T18:07:31.361Z,12.33
2022-10-23T18:10:08.439Z,12.35
2022-10-23T18:12:43.227Z,12.36
2022-10-23T18:15:16.987Z,12.35
2022-10-23T18:17:56.437Z,12.35
2022-10-23T18:20:40.617Z,12.36
2022-10-23T18:23:16.162Z,12.38
2022-10-23T18:25:51.519Z,12.37
2022-10-23T18:28:26.356Z,12.37
2022-10-23T18:31:11.210Z,12.40
2022-10-23T18:36:41.361Z,12.41
2022-10-23T18:39:22.948Z,12.42
2022-10-23T18:42:11.781Z,12.42
2022-10-23T18:44:48.923Z,12.41
2022-10-23T18:47:26.899Z,12.44
2022-10-23T18:50:05.335Z,12.48
2022-10-23T18:52:45.320Z,12.52
2022-10-23T18:55:20.946Z,12.54
2022-10-23T18:57:59.254Z,12.57
2022-10-23T19:00:37.904Z,12.58
2022-10-23T19:03:17.307Z,12.61
2022-10-23T19:05:57.735Z,12.63
2022-10-23T19:08:31.511Z,12.64
2022-10-23T19:11:06.848Z,12.66
2022-10-23T19:13:40.849Z,12.67
2022-10-23T19:16:32.297Z,12.70
2022-10-23T19:19:15.417Z,12.70
2022-10-23T19:22:03.091Z,12.67
2022-10-23T19:24:59.874Z,12.67
2022-10-23T19:27:34.013Z,12.66
2022-10-23T19:30:09.469Z,12.64
2022-10-23T19:32:44.574Z,12.62
2022-10-23T19:35:18.865Z,12.60
2022-10-23T19:37:53.803Z,12.58
2022-10-23T19:40:28.659Z,12.58
2022-10-23T19:43:03.058Z,12.56
2022-10-23T19:45:38.521Z,12.53
2022-10-23T19:48:11.454Z,12.51
2022-10-23T19:50:47.993Z,12.49
2022-10-23T19:53:20.686Z,12.51
2022-10-23T19:56:07.516Z,12.51
2022-10-23T19:58:42.168Z,12.51
2022-10-23T20:01:18.678Z,12.51
2022-10-23T20:03:52.005Z,12.51
2022-10-23T20:06:49.913Z,12.48
2022-10-23T20:09:22.536Z,12.48
2022-10-23T20:11:57.050Z,12.49
2022-10-23T20:14:29.627Z,12.47
2022-10-23T20:17:03.195Z,12.47
2022-10-23T20:19:37.263Z,12.48
2022-10-23T20:22:11.089Z,12.47
2022-10-23T20:24:43.630Z,12.46
2022-10-23T20:27:17.233Z,12.46
2022-10-23T20:29:51.071Z,12.46
2022-10-23T20:32:23.656Z,12.46
2022-10-23T20:34:56.425Z,12.44
2022-10-23T20:37:28.908Z,12.42
2022-10-23T20:40:01.592Z,12.42
2022-10-23T20:42:34.219Z,12.42
2022-10-23T20:45:07.514Z,12.44
2022-10-23T20:47:41.632Z,12.44
2022-10-23T20:50:14.733Z,12.44
2022-10-23T20:52:48.751Z,12.44
2022-10-23T20:55:21.871Z,12.45
2022-10-23T20:57:55.919Z,12.45
2022-10-23T21:00:28.801Z,12.46
2022-10-23T21:03:05.779Z,12.47
2022-10-23T21:05:38.767Z,12.46
2022-10-23T21:08:11.883Z,12.47
2022-10-23T21:10:48.425Z,12.46
2022-10-23T21:13:21.666Z,12.46
2022-10-23T21:15:55.035Z,12.46
2022-10-23T21:18:44.829Z,12.46
2022-10-23T21:21:03.442Z,12.47
2022-10-23T21:23:38.650Z,12.48
2022-10-23T21:26:11.488Z,12.48
2022-10-23T21:28:55.613Z,12.47
2022-10-23T21:31:23.806Z,12.46
2022-10-23T21:33:56.759Z,12.48
2022-10-23T21:36:34.305Z,12.49
2022-10-23T21:39:06.929Z,12.48
2022-10-23T21:41:40.406Z,12.50
2022-10-23T21:44:14.141Z,12.50
2022-10-23T21:46:47.890Z,12.49
2022-10-23T21:49:20.983Z,12.49
2022-10-23T21:51:55.328Z,12.46
2022-10-23T21:54:28.848Z,12.46
2022-10-23T21:57:03.265Z,12.43
2022-10-23T21:59:36.271Z,12.42
2022-10-23T22:02:09.667Z,12.41
2022-10-23T22:04:43.612Z,12.38
2022-10-23T22:07:18.687Z,12.37
2022-10-23T22:09:51.591Z,12.36
2022-10-23T22:12:24.788Z,12.36
2022-10-23T22:14:58.479Z,12.35
2022-10-23T22:17:31.582Z,12.37
2022-10-23T22:20:07.244Z,12.35
2022-10-23T22:22:39.320Z,12.36
2022-10-23T22:25:12.958Z,12.37
2022-10-23T22:27:46.573Z,12.36
2022-10-23T22:30:20.253Z,12.38
2022-10-23T22:32:53.150Z,12.37
2022-10-23T22:35:26.499Z,12.40
2022-10-23T22:37:59.038Z,12.39
2022-10-23T22:40:31.956Z,12.39
2022-10-23T22:43:04.660Z,12.39
2022-10-23T22:45:37.603Z,12.40
2022-10-23T22:48:10.126Z,12.41
2022-10-23T22:50:43.967Z,12.41
2022-10-23T22:53:17.077Z,12.42
2022-10-23T22:55:49.652Z,12.43
2022-10-23T22:58:23.202Z,12.42
2022-10-23T23:01:03.550Z,12.42
2022-10-23T23:03:38.193Z,12.44
2022-10-23T23:06:10.738Z,12.45
2022-10-23T23:08:43.528Z,12.45
2022-10-23T23:11:18.531Z,12.45
2022-10-23T23:13:51.395Z,12.46
2022-10-23T23:16:30.490Z,12.46
2022-10-23T23:19:04.564Z,12.46
2022-10-23T23:21:38.401Z,12.47
2022-10-23T23:24:12.768Z,12.46
2022-10-23T23:26:46.188Z,12.48
2022-10-23T23:29:19.521Z,12.49
2022-10-23T23:31:53.877Z,12.50
2022-10-23T23:34:26.472Z,12.51
2022-10-23T23:37:00.890Z,12.50
2022-10-23T23:39:33.636Z,12.51
2022-10-23T23:42:06.406Z,12.53
2022-10-23T23:44:50.234Z,12.53
2022-10-23T23:47:15.565Z,12.54
2022-10-23T23:49:48.509Z,12.55
2022-10-23T23:52:21.826Z,12.55
2022-10-23T23:54:56.205Z,12.56
2022-10-23T23:57:28.949Z,12.55
